sensor_id;sensor_type;location;lat;lon;timestamp;pressure;altitude;pressure_sealevel;temperature;humidity
39267;BME280;24967;51.154;13.812;2023-09-12T00:01:06;99149.84;;;18.70;80.68
39267;BME280;24967;51.154;13.812;2023-09-12T00:03:34;99139.94;;;18.64;81.42
39267;BME280;24967;51.154;13.812;2023-09-12T00:06:02;99138.88;;;18.65;81.04
39267;BME280;24967;51.154;13.812;2023-09-12T00:08:29;99136.81;;;18.61;81.51
39267;BME280;24967;51.154;13.812;2023-09-12T00:11:01;99140.34;;;18.54;81.94
39267;BME280;24967;51.154;13.812;2023-09-12T00:13:29;99135.63;;;18.50;82.18
39267;BME280;24967;51.154;13.812;2023-09-12T00:15:55;99142.44;;;18.52;82.45
39267;BME280;24967;51.154;13.812;2023-09-12T00:18:22;99134.38;;;18.52;82.34
39267;BME280;24967;51.154;13.812;2023-09-12T00:20:49;99139.94;;;18.51;82.52
39267;BME280;24967;51.154;13.812;2023-09-12T00:23:16;99143.06;;;18.48;82.58
39267;BME280;24967;51.154;13.812;2023-09-12T00:25:42;99137.91;;;18.46;82.59
39267;BME280;24967;51.154;13.812;2023-09-12T00:28:10;99137.69;;;18.48;82.81
39267;BME280;24967;51.154;13.812;2023-09-12T00:30:37;99140.81;;;18.45;83.37
39267;BME280;24967;51.154;13.812;2023-09-12T00:33:04;99130.47;;;18.42;83.86
39267;BME280;24967;51.154;13.812;2023-09-12T00:35:30;99137.72;;;18.41;84.01
39267;BME280;24967;51.154;13.812;2023-09-12T00:37:57;99134.81;;;18.36;84.37
39267;BME280;24967;51.154;13.812;2023-09-12T00:40:23;99137.09;;;18.39;84.48
39267;BME280;24967;51.154;13.812;2023-09-12T00:42:50;99132.75;;;18.38;84.78
39267;BME280;24967;51.154;13.812;2023-09-12T00:45:18;99130.25;;;18.43;84.44
39267;BME280;24967;51.154;13.812;2023-09-12T00:47:44;99132.13;;;18.43;84.69
39267;BME280;24967;51.154;13.812;2023-09-12T00:50:11;99132.94;;;18.43;84.80
39267;BME280;24967;51.154;13.812;2023-09-12T00:52:39;99132.94;;;18.43;84.39
39267;BME280;24967;51.154;13.812;2023-09-12T00:55:06;99134.81;;;18.43;84.33
39267;BME280;24967;51.154;13.812;2023-09-12T00:57:34;99131.28;;;18.42;83.83
39267;BME280;24967;51.154;13.812;2023-09-12T01:00:02;99128.81;;;18.41;83.14
39267;BME280;24967;51.154;13.812;2023-09-12T01:02:37;99135.03;;;18.35;83.25
39267;BME280;24967;51.154;13.812;2023-09-12T01:05:05;99142.28;;;18.34;82.95
39267;BME280;24967;51.154;13.812;2023-09-12T01:07:32;99143.31;;;18.26;83.15
39267;BME280;24967;51.154;13.812;2023-09-12T01:09:59;99142.94;;;18.23;83.39
39267;BME280;24967;51.154;13.812;2023-09-12T01:12:25;99135.06;;;18.15;83.68
39267;BME280;24967;51.154;13.812;2023-09-12T01:14:52;99143.13;;;18.15;83.76
39267;BME280;24967;51.154;13.812;2023-09-12T01:17:19;99133.63;;;18.12;83.40
39267;BME280;24967;51.154;13.812;2023-09-12T01:19:47;99146.06;;;18.06;83.34
39267;BME280;24967;51.154;13.812;2023-09-12T01:22:45;99138.00;;;18.06;83.26
39267;BME280;24967;51.154;13.812;2023-09-12T01:25:42;99146.47;;;18.03;82.81
39267;BME280;24967;51.154;13.812;2023-09-12T01:28:14;99146.03;;;18.00;83.93
39267;BME280;24967;51.154;13.812;2023-09-12T01:30:45;99147.09;;;17.99;84.15
39267;BME280;24967;51.154;13.812;2023-09-12T01:33:12;99147.50;;;17.96;84.36
39267;BME280;24967;51.154;13.812;2023-09-12T01:35:38;99145.22;;;17.93;84.51
39267;BME280;24967;51.154;13.812;2023-09-12T01:38:05;99142.34;;;17.88;85.01
39267;BME280;24967;51.154;13.812;2023-09-12T01:40:37;99147.50;;;17.89;85.04
39267;BME280;24967;51.154;13.812;2023-09-12T01:43:06;99148.75;;;17.87;84.96
39267;BME280;24967;51.154;13.812;2023-09-12T01:45:35;99143.38;;;17.87;84.99
39267;BME280;24967;51.154;13.812;2023-09-12T01:48:03;99136.78;;;17.82;85.43
39267;BME280;24967;51.154;13.812;2023-09-12T01:50:30;99145.25;;;17.79;85.37
39267;BME280;24967;51.154;13.812;2023-09-12T01:52:58;99148.31;;;17.76;85.67
39267;BME280;24967;51.154;13.812;2023-09-12T01:55:25;99144.19;;;17.74;86.26
39267;BME280;24967;51.154;13.812;2023-09-12T01:57:52;99141.50;;;17.74;85.90
39267;BME280;24967;51.154;13.812;2023-09-12T02:00:19;99145.63;;;17.76;85.50
39267;BME280;24967;51.154;13.812;2023-09-12T02:02:47;99146.44;;;17.77;85.31
39267;BME280;24967;51.154;13.812;2023-09-12T02:05:16;99139.63;;;17.74;85.24
39267;BME280;24967;51.154;13.812;2023-09-12T02:07:44;99144.19;;;17.74;84.92
39267;BME280;24967;51.154;13.812;2023-09-12T02:10:11;99144.38;;;17.72;84.71
39267;BME280;24967;51.154;13.812;2023-09-12T02:12:38;99143.56;;;17.65;84.71
39267;BME280;24967;51.154;13.812;2023-09-12T02:15:06;99141.69;;;17.59;84.70
39267;BME280;24967;51.154;13.812;2023-09-12T02:17:32;99142.69;;;17.51;85.53
39267;BME280;24967;51.154;13.812;2023-09-12T02:20:00;99138.78;;;17.47;85.92
39267;BME280;24967;51.154;13.812;2023-09-12T02:22:28;99143.09;;;17.48;85.60
39267;BME280;24967;51.154;13.812;2023-09-12T02:24:54;99147.47;;;17.49;85.47
39267;BME280;24967;51.154;13.812;2023-09-12T02:27:21;99142.09;;;17.49;85.41
39267;BME280;24967;51.154;13.812;2023-09-12T02:29:47;99140.41;;;17.48;85.31
39267;BME280;24967;51.154;13.812;2023-09-12T02:32:14;99138.56;;;17.49;85.15
39267;BME280;24967;51.154;13.812;2023-09-12T02:34:40;99141.25;;;17.49;85.10
39267;BME280;24967;51.154;13.812;2023-09-12T02:37:08;99142.50;;;17.46;85.12
39267;BME280;24967;51.154;13.812;2023-09-12T02:39:35;99137.53;;;17.43;85.36
39267;BME280;24967;51.154;13.812;2023-09-12T02:42:01;99143.94;;;17.42;85.22
39267;BME280;24967;51.154;13.812;2023-09-12T02:44:28;99143.50;;;17.38;85.35
39267;BME280;24967;51.154;13.812;2023-09-12T02:46:55;99147.66;;;17.34;85.55
39267;BME280;24967;51.154;13.812;2023-09-12T02:49:21;99154.66;;;17.35;85.65
39267;BME280;24967;51.154;13.812;2023-09-12T02:51:47;99151.34;;;17.33;85.67
39267;BME280;24967;51.154;13.812;2023-09-12T02:54:15;99148.47;;;17.35;85.48
39267;BME280;24967;51.154;13.812;2023-09-12T02:56:42;99150.53;;;17.33;85.20
39267;BME280;24967;51.154;13.812;2023-09-12T02:59:09;99146.59;;;17.29;85.47
39267;BME280;24967;51.154;13.812;2023-09-12T03:01:35;99143.50;;;17.25;85.70
39267;BME280;24967;51.154;13.812;2023-09-12T03:04:02;99142.03;;;17.23;85.65
39267;BME280;24967;51.154;13.812;2023-09-12T03:06:29;99143.91;;;17.22;85.43
39267;BME280;24967;51.154;13.812;2023-09-12T03:08:56;99145.53;;;17.16;85.51
39267;BME280;24967;51.154;13.812;2023-09-12T03:11:25;99146.56;;;17.15;85.49
39267;BME280;24967;51.154;13.812;2023-09-12T03:13:52;99148.41;;;17.15;85.51
39267;BME280;24967;51.154;13.812;2023-09-12T03:16:19;99149.03;;;17.10;85.80
39267;BME280;24967;51.154;13.812;2023-09-12T03:18:45;99150.03;;;17.09;86.07
39267;BME280;24967;51.154;13.812;2023-09-12T03:21:12;99137.66;;;17.08;86.06
39267;BME280;24967;51.154;13.812;2023-09-12T03:23:38;99139.53;;;17.08;86.21
39267;BME280;24967;51.154;13.812;2023-09-12T03:26:05;99144.88;;;17.08;85.88
39267;BME280;24967;51.154;13.812;2023-09-12T03:28:33;99137.03;;;17.06;85.88
39267;BME280;24967;51.154;13.812;2023-09-12T03:31:03;99135.38;;;17.05;85.85
39267;BME280;24967;51.154;13.812;2023-09-12T03:33:30;99140.97;;;17.04;85.51
39267;BME280;24967;51.154;13.812;2023-09-12T03:35:57;99134.97;;;17.02;85.38
39267;BME280;24967;51.154;13.812;2023-09-12T03:38:23;99137.84;;;17.00;85.40
39267;BME280;24967;51.154;13.812;2023-09-12T03:40:50;99139.91;;;16.98;85.08
39267;BME280;24967;51.154;13.812;2023-09-12T03:43:16;99135.78;;;16.96;84.81
39267;BME280;24967;51.154;13.812;2023-09-12T03:45:44;99127.69;;;16.89;85.02
39267;BME280;24967;51.154;13.812;2023-09-12T03:48:11;99136.56;;;16.89;85.35
39267;BME280;24967;51.154;13.812;2023-09-12T03:50:37;99128.09;;;16.86;85.67
39267;BME280;24967;51.154;13.812;2023-09-12T03:53:04;99132.00;;;16.83;85.34
39267;BME280;24967;51.154;13.812;2023-09-12T03:55:30;99130.94;;;16.78;85.62
39267;BME280;24967;51.154;13.812;2023-09-12T03:57:57;99130.31;;;16.76;85.53
39267;BME280;24967;51.154;13.812;2023-09-12T04:00:23;99132.00;;;16.77;85.50
39267;BME280;24967;51.154;13.812;2023-09-12T04:02:51;99132.16;;;16.75;85.66
39267;BME280;24967;51.154;13.812;2023-09-12T04:05:18;99136.88;;;16.73;85.86
39267;BME280;24967;51.154;13.812;2023-09-12T04:07:44;99135.22;;;16.72;86.02
39267;BME280;24967;51.154;13.812;2023-09-12T04:10:11;99129.22;;;16.70;85.54
39267;BME280;24967;51.154;13.812;2023-09-12T04:12:37;99133.97;;;16.68;85.21
39267;BME280;24967;51.154;13.812;2023-09-12T04:15:05;99142.44;;;16.65;84.68
39267;BME280;24967;51.154;13.812;2023-09-12T04:17:31;99139.50;;;16.60;84.80
39267;BME280;24967;51.154;13.812;2023-09-12T04:19:59;99139.72;;;16.58;84.66
39267;BME280;24967;51.154;13.812;2023-09-12T04:22:26;99140.13;;;16.55;84.84
39267;BME280;24967;51.154;13.812;2023-09-12T04:24:53;99140.31;;;16.54;84.64
39267;BME280;24967;51.154;13.812;2023-09-12T04:27:20;99141.34;;;16.53;84.64
39267;BME280;24967;51.154;13.812;2023-09-12T04:29:47;99139.25;;;16.48;84.98
39267;BME280;24967;51.154;13.812;2023-09-12T04:32:14;99133.84;;;16.41;85.84
39267;BME280;24967;51.154;13.812;2023-09-12T04:34:42;99144.34;;;16.43;85.91
39267;BME280;24967;51.154;13.812;2023-09-12T04:37:10;99140.44;;;16.39;86.50
39267;BME280;24967;51.154;13.812;2023-09-12T04:39:36;99142.06;;;16.40;86.96
39267;BME280;24967;51.154;13.812;2023-09-12T04:42:04;99140.66;;;16.37;87.41
39267;BME280;24967;51.154;13.812;2023-09-12T04:44:34;99129.50;;;16.40;87.55
39267;BME280;24967;51.154;13.812;2023-09-12T04:47:01;99133.63;;;16.43;87.89
39267;BME280;24967;51.154;13.812;2023-09-12T04:49:28;99133.63;;;16.43;88.09
39267;BME280;24967;51.154;13.812;2023-09-12T04:51:54;99127.03;;;16.45;87.88
39267;BME280;24967;51.154;13.812;2023-09-12T04:54:22;99134.50;;;16.50;87.52
39267;BME280;24967;51.154;13.812;2023-09-12T04:56:49;99132.47;;;16.52;87.24
39267;BME280;24967;51.154;13.812;2023-09-12T04:59:15;99125.28;;;16.59;87.31
39267;BME280;24967;51.154;13.812;2023-09-12T05:01:42;99129.19;;;16.63;87.08
39267;BME280;24967;51.154;13.812;2023-09-12T05:04:08;99126.94;;;16.67;86.95
39267;BME280;24967;51.154;13.812;2023-09-12T05:06:35;99132.75;;;16.70;86.82
39267;BME280;24967;51.154;13.812;2023-09-12T05:09:02;99129.47;;;16.75;86.61
39267;BME280;24967;51.154;13.812;2023-09-12T05:11:32;99139.66;;;16.80;86.52
39267;BME280;24967;51.154;13.812;2023-09-12T05:13:58;99137.16;;;16.85;86.30
39267;BME280;24967;51.154;13.812;2023-09-12T05:16:25;99136.56;;;16.89;86.27
39267;BME280;24967;51.154;13.812;2023-09-12T05:18:51;99136.59;;;16.96;86.11
39267;BME280;24967;51.154;13.812;2023-09-12T05:21:20;99131.22;;;16.96;86.07
39267;BME280;24967;51.154;13.812;2023-09-12T05:23:46;99140.53;;;17.00;85.84
